sensor_id;sensor_type;location;lat;lon;timestamp;pressure;altitude;pressure_sealevel;temperature;humidity
45991;BME280;31721;41.740;-88.000;2023-06-14T00:02:27;97573.20;;;18.16;64.53
45991;BME280;31721;41.740;-88.000;2023-06-14T00:04:55;97575.11;;;18.19;64.27
45991;BME280;31721;41.740;-88.000;2023-06-14T00:07:34;97579.69;;;18.23;64.41
45991;BME280;31721;41.740;-88.000;2023-06-14T00:10:03;97576.24;;;18.21;64.59
45991;BME280;31721;41.740;-88.000;2023-06-14T00:12:31;97579.78;;;18.23;64.48
45991;BME280;31721;41.740;-88.000;2023-06-14T00:14:58;97578.39;;;18.24;64.51
45991;BME280;31721;41.740;-88.000;2023-06-14T00:17:26;97581.03;;;18.25;64.62
45991;BME280;31721;41.740;-88.000;2023-06-14T00:19:53;97579.73;;;18.30;64.56
45991;BME280;31721;41.740;-88.000;2023-06-14T00:22:21;97568.09;;;18.36;64.39
45991;BME280;31721;41.740;-88.000;2023-06-14T00:24:49;97565.25;;;18.34;64.09
45991;BME280;31721;41.740;-88.000;2023-06-14T00:27:17;97569.53;;;18.50;63.92
45991;BME280;31721;41.740;-88.000;2023-06-14T00:29:45;97584.08;;;18.32;63.88
45991;BME280;31721;41.740;-88.000;2023-06-14T00:32:12;97598.50;;;18.22;63.97
45991;BME280;31721;41.740;-88.000;2023-06-14T00:34:40;97655.54;;;18.33;64.02
45991;BME280;31721;41.740;-88.000;2023-06-14T00:37:08;97632.65;;;18.19;64.02
45991;BME280;31721;41.740;-88.000;2023-06-14T00:39:36;97630.89;;;18.08;64.18
45991;BME280;31721;41.740;-88.000;2023-06-14T00:42:05;97636.56;;;17.96;63.85
45991;BME280;31721;41.740;-88.000;2023-06-14T00:44:33;97642.70;;;17.86;64.09
45991;BME280;31721;41.740;-88.000;2023-06-14T00:47:02;97643.35;;;17.79;64.13
45991;BME280;31721;41.740;-88.000;2023-06-14T00:49:30;97641.09;;;17.65;64.17
45991;BME280;31721;41.740;-88.000;2023-06-14T00:51:59;97642.39;;;17.54;63.96
45991;BME280;31721;41.740;-88.000;2023-06-14T00:54:27;97641.11;;;17.64;63.73
45991;BME280;31721;41.740;-88.000;2023-06-14T00:56:54;97639.41;;;17.54;64.00
45991;BME280;31721;41.740;-88.000;2023-06-14T00:59:22;97636.59;;;17.53;63.86
45991;BME280;31721;41.740;-88.000;2023-06-14T01:01:50;97646.26;;;17.57;63.95
45991;BME280;31721;41.740;-88.000;2023-06-14T01:04:18;97654.98;;;17.40;63.92
45991;BME280;31721;41.740;-88.000;2023-06-14T01:06:54;97657.01;;;17.42;63.65
45991;BME280;31721;41.740;-88.000;2023-06-14T01:09:31;97658.21;;;17.22;63.86
45991;BME280;31721;41.740;-88.000;2023-06-14T01:12:07;97665.80;;;17.16;63.47
45991;BME280;31721;41.740;-88.000;2023-06-14T01:14:39;97664.26;;;16.92;63.62
45991;BME280;31721;41.740;-88.000;2023-06-14T01:17:09;97671.48;;;16.89;63.85
45991;BME280;31721;41.740;-88.000;2023-06-14T01:19:37;97671.46;;;16.72;63.55
45991;BME280;31721;41.740;-88.000;2023-06-14T01:22:05;97669.61;;;16.78;63.77
45991;BME280;31721;41.740;-88.000;2023-06-14T01:24:33;97670.36;;;16.68;63.92
45991;BME280;31721;41.740;-88.000;2023-06-14T01:27:02;97684.58;;;16.71;63.83
45991;BME280;31721;41.740;-88.000;2023-06-14T01:29:31;97678.98;;;16.48;63.74
45991;BME280;31721;41.740;-88.000;2023-06-14T01:32:00;97684.23;;;16.53;63.76
45991;BME280;31721;41.740;-88.000;2023-06-14T01:34:27;97685.73;;;16.43;63.88
45991;BME280;31721;41.740;-88.000;2023-06-14T01:36:57;97686.10;;;16.26;63.93
45991;BME280;31721;41.740;-88.000;2023-06-14T01:39:28;97693.80;;;16.16;64.35
45991;BME280;31721;41.740;-88.000;2023-06-14T01:41:57;97696.96;;;16.27;63.84
45991;BME280;31721;41.740;-88.000;2023-06-14T01:44:27;97691.49;;;15.89;64.78
45991;BME280;31721;41.740;-88.000;2023-06-14T01:46:55;97695.44;;;16.06;64.66
45991;BME280;31721;41.740;-88.000;2023-06-14T01:49:23;97706.91;;;16.16;64.28
45991;BME280;31721;41.740;-88.000;2023-06-14T01:51:52;97701.94;;;15.98;64.12
45991;BME280;31721;41.740;-88.000;2023-06-14T01:54:21;97696.40;;;16.11;64.23
45991;BME280;31721;41.740;-88.000;2023-06-14T01:56:49;97703.66;;;16.09;64.12
45991;BME280;31721;41.740;-88.000;2023-06-14T01:59:19;97712.96;;;15.92;64.41
45991;BME280;31721;41.740;-88.000;2023-06-14T02:01:48;97712.61;;;16.14;64.39
45991;BME280;31721;41.740;-88.000;2023-06-14T02:04:17;97711.30;;;16.11;64.24
45991;BME280;31721;41.740;-88.000;2023-06-14T02:06:45;97712.89;;;16.11;64.19
45991;BME280;31721;41.740;-88.000;2023-06-14T02:09:13;97705.75;;;16.18;64.20
45991;BME280;31721;41.740;-88.000;2023-06-14T02:11:42;97698.85;;;16.03;64.27
45991;BME280;31721;41.740;-88.000;2023-06-14T02:14:10;97701.45;;;16.00;64.04
45991;BME280;31721;41.740;-88.000;2023-06-14T02:16:38;97690.18;;;16.15;64.28
45991;BME280;31721;41.740;-88.000;2023-06-14T02:19:08;97684.69;;;16.10;64.21
45991;BME280;31721;41.740;-88.000;2023-06-14T02:21:36;97678.60;;;16.19;64.01
45991;BME280;31721;41.740;-88.000;2023-06-14T02:24:04;97674.53;;;16.22;64.29
45991;BME280;31721;41.740;-88.000;2023-06-14T02:26:32;97681.50;;;16.20;64.24
45991;BME280;31721;41.740;-88.000;2023-06-14T02:29:01;97676.07;;;16.27;64.29
45991;BME280;31721;41.740;-88.000;2023-06-14T02:31:30;97675.30;;;16.19;64.09
45991;BME280;31721;41.740;-88.000;2023-06-14T02:34:00;97676.59;;;16.31;64.23
45991;BME280;31721;41.740;-88.000;2023-06-14T02:36:28;97676.79;;;16.21;64.13
45991;BME280;31721;41.740;-88.000;2023-06-14T02:38:58;97674.92;;;16.27;64.22
45991;BME280;31721;41.740;-88.000;2023-06-14T02:41:26;97686.98;;;16.13;64.43
45991;BME280;31721;41.740;-88.000;2023-06-14T02:43:55;97687.85;;;16.27;64.04
45991;BME280;31721;41.740;-88.000;2023-06-14T02:46:24;97684.59;;;16.19;64.22
45991;BME280;31721;41.740;-88.000;2023-06-14T02:48:52;97686.05;;;16.31;64.36
45991;BME280;31721;41.740;-88.000;2023-06-14T02:51:20;97689.02;;;16.31;64.09
45991;BME280;31721;41.740;-88.000;2023-06-14T02:53:48;97693.35;;;16.23;64.34
45991;BME280;31721;41.740;-88.000;2023-06-14T02:56:16;97698.43;;;16.34;64.29
45991;BME280;31721;41.740;-88.000;2023-06-14T02:58:44;97700.90;;;16.20;64.28
45991;BME280;31721;41.740;-88.000;2023-06-14T03:01:11;97705.48;;;16.38;64.33
45991;BME280;31721;41.740;-88.000;2023-06-14T03:03:39;97705.49;;;16.42;64.39
45991;BME280;31721;41.740;-88.000;2023-06-14T03:06:07;97705.22;;;16.30;64.28
45991;BME280;31721;41.740;-88.000;2023-06-14T03:08:35;97705.52;;;16.41;64.15
45991;BME280;31721;41.740;-88.000;2023-06-14T03:11:03;97710.76;;;16.41;64.19
45991;BME280;31721;41.740;-88.000;2023-06-14T03:13:31;97712.01;;;16.44;64.29
45991;BME280;31721;41.740;-88.000;2023-06-14T03:15:59;97714.82;;;16.45;64.14
45991;BME280;31721;41.740;-88.000;2023-06-14T03:18:29;97712.94;;;16.39;64.21
45991;BME280;31721;41.740;-88.000;2023-06-14T03:20:57;97713.61;;;16.46;64.08
45991;BME280;31721;41.740;-88.000;2023-06-14T03:23:24;97715.16;;;16.51;64.14
45991;BME280;31721;41.740;-88.000;2023-06-14T03:25:52;97715.76;;;16.40;63.96
45991;BME280;31721;41.740;-88.000;2023-06-14T03:28:20;97713.50;;;16.39;63.90
45991;BME280;31721;41.740;-88.000;2023-06-14T03:30:48;97717.11;;;16.30;63.87
45991;BME280;31721;41.740;-88.000;2023-06-14T03:33:16;97716.07;;;16.30;63.89
45991;BME280;31721;41.740;-88.000;2023-06-14T03:35:44;97718.80;;;16.30;63.74
45991;BME280;31721;41.740;-88.000;2023-06-14T03:38:11;97723.08;;;16.53;63.71
45991;BME280;31721;41.740;-88.000;2023-06-14T03:40:39;97718.42;;;16.49;63.67
45991;BME280;31721;41.740;-88.000;2023-06-14T03:43:06;97721.86;;;16.43;63.55
45991;BME280;31721;41.740;-88.000;2023-06-14T03:45:34;97721.71;;;16.44;63.60
45991;BME280;31721;41.740;-88.000;2023-06-14T03:48:02;97719.59;;;16.46;63.61
45991;BME280;31721;41.740;-88.000;2023-06-14T03:50:30;97721.28;;;16.59;63.55
45991;BME280;31721;41.740;-88.000;2023-06-14T03:52:58;97709.07;;;16.59;63.23
45991;BME280;31721;41.740;-88.000;2023-06-14T03:55:25;97706.06;;;16.67;63.19
45991;BME280;31721;41.740;-88.000;2023-06-14T03:57:53;97707.60;;;16.60;63.20
45991;BME280;31721;41.740;-88.000;2023-06-14T04:00:21;97708.28;;;16.56;63.13
45991;BME280;31721;41.740;-88.000;2023-06-14T04:02:49;97711.50;;;16.61;63.23
45991;BME280;31721;41.740;-88.000;2023-06-14T04:05:17;97712.71;;;16.53;63.29
45991;BME280;31721;41.740;-88.000;2023-06-14T04:07:45;97716.02;;;16.46;63.37
45991;BME280;31721;41.740;-88.000;2023-06-14T04:10:13;97712.52;;;16.56;63.24
45991;BME280;31721;41.740;-88.000;2023-06-14T04:12:41;97706.10;;;16.50;63.28
45991;BME280;31721;41.740;-88.000;2023-06-14T04:15:10;97705.31;;;16.57;63.30
45991;BME280;31721;41.740;-88.000;2023-06-14T04:17:38;97702.29;;;16.50;63.34
45991;BME280;31721;41.740;-88.000;2023-06-14T04:20:07;97703.18;;;16.46;63.10
45991;BME280;31721;41.740;-88.000;2023-06-14T04:22:35;97706.15;;;16.59;63.23
45991;BME280;31721;41.740;-88.000;2023-06-14T04:25:04;97698.10;;;16.69;62.96
45991;BME280;31721;41.740;-88.000;2023-06-14T04:27:32;97699.98;;;16.53;62.55
45991;BME280;31721;41.740;-88.000;2023-06-14T04:30:00;97698.65;;;16.53;62.74
45991;BME280;31721;41.740;-88.000;2023-06-14T04:32:29;97694.12;;;16.54;62.87
45991;BME280;31721;41.740;-88.000;2023-06-14T04:34:57;97694.86;;;16.51;62.82
45991;BME280;31721;41.740;-88.000;2023-06-14T04:37:25;97691.83;;;16.70;62.57
45991;BME280;31721;41.740;-88.000;2023-06-14T04:39:54;97692.13;;;16.51;62.52
45991;BME280;31721;41.740;-88.000;2023-06-14T04:42:22;97698.94;;;16.69;62.76
45991;BME280;31721;41.740;-88.000;2023-06-14T04:44:49;97697.37;;;16.64;62.83
45991;BME280;31721;41.740;-88.000;2023-06-14T04:47:17;97697.73;;;16.57;62.71
45991;BME280;31721;41.740;-88.000;2023-06-14T04:49:45;97696.47;;;16.59;62.88
45991;BME280;31721;41.740;-88.000;2023-06-14T04:52:12;97698.14;;;16.65;62.76
45991;BME280;31721;41.740;-88.000;2023-06-14T04:54:41;97698.75;;;16.66;62.54
45991;BME280;31721;41.740;-88.000;2023-06-14T04:57:09;97700.61;;;16.66;62.56
45991;BME280;31721;41.740;-88.000;2023-06-14T04:59:36;97700.85;;;16.66;62.65
45991;BME280;31721;41.740;-88.000;2023-06-14T05:02:05;97699.71;;;16.67;62.64
45991;BME280;31721;41.740;-88.000;2023-06-14T05:04:33;97698.15;;;16.66;62.66
45991;BME280;31721;41.740;-88.000;2023-06-14T05:07:00;97701.73;;;16.65;62.75
45991;BME280;31721;41.740;-88.000;2023-06-14T05:09:28;97704.55;;;16.65;62.85
45991;BME280;31721;41.740;-88.000;2023-06-14T05:11:56;97705.04;;;16.65;63.05
45991;BME280;31721;41.740;-88.000;2023-06-14T05:14:23;97708.39;;;16.65;63.01
45991;BME280;31721;41.740;-88.000;2023-06-14T05:16:51;97711.75;;;16.59;63.18
45991;BME280;31721;41.740;-88.000;2023-06-14T05:19:19;97710.64;;;16.65;63.28
45991;BME280;31721;41.740;-88.000;2023-06-14T05:21:47;97711.60;;;16.67;63.41
45991;BME280;31721;41.740;-88.000;2023-06-14T05:24:16;97713.57;;;16.69;63.38
45991;BME280;31721;41.740;-88.000;2023-06-14T05:26:43;97714.21;;;16.70;63.52
45991;BME280;31721;41.740;-88.000;2023-06-14T05:29:12;97716.80;;;16.70;63.37
45991;BME280;31721;41.740;-88.000;2023-06-14T05:31:40;97719.18;;;16.71;63.40
45991;BME280;31721;41.740;-88.000;2023-06-14T05:34:07;97716.72;;;16.71;63.47
45991;BME280;31721;41.740;-88.000;2023-06-14T05:36:35;97721.34;;;16.66;63.57
45991;BME280;31721;41.740;-88.000;2023-06-14T05:39:03;97722.71;;;16.72;63.48
45991;BME280;31721;41.740;-88.000;2023-06-14T05:41:30;97722.54;;;16.57;63.54
45991;BME280;31721;41.740;-88.000;2023-06-14T05:43:58;97723.10;;;16.72;63.48
45991;BME280;31721;41.740;-88.000;2023-06-14T05:46:26;97722.33;;;16.65;63.60
45991;BME280;31721;41.740;-88.000;2023-06-14T05:48:54;97723.00;;;16.73;63.64
45991;BME280;31721;41.740;-88.000;2023-06-14T05:51:23;97724.30;;;16.72;63.62
45991;BME280;31721;41.740;-88.000;2023-06-14T05:53:51;97721.91;;;16.73;63.59
45991;BME280;31721;41.740;-88.000;2023-06-14T05:56:18;97718.89;;;16.69;63.68
45991;BME280;31721;41.740;-88.000;2023-06-14T05:58:47;97718.24;;;16.73;63.69
45991;BME280;31721;41.740;-88.000;2023-06-14T06:01:15;97721.30;;;16.75;63.57
45991;BME280;31721;41.740;-88.000;2023-06-14T06:03:43;97723.43;;;16.74;63.59
45991;BME280;31721;41.740;-88.000;2023-06-14T06:06:10;97723.33;;;16.85;63.16
45991;BME280;31721;41.740;-88.000;2023-06-14T06:08:38;97719.93;;;16.88;63.02
45991;BME280;31721;41.740;-88.000;2023-06-14T06:11:06;97717.24;;;16.78;63.05
45991;BME280;31721;41.740;-88.000;2023-06-14T06:13:34;97711.19;;;16.93;62.80
45991;BME280;31721;41.740;-88.000;2023-06-14T06:16:02;97709.78;;;17.03;62.25
45991;BME280;31721;41.740;-88.000;2023-06-14T06:18:30;97710.48;;;16.79;62.34
45991;BME280;31721;41.740;-88.000;2023-06-14T06:20:57;97709.20;;;16.90;62.49
45991;BME280;31721;41.740;-88.000;2023-06-14T06:23:25;97711.48;;;16.78;62.32
45991;BME280;31721;41.740;-88.000;2023-06-14T06:25:52;97721.68;;;16.76;62.48
45991;BME280;31721;41.740;-88.000;2023-06-14T06:28:20;97723.70;;;16.74;62.63
45991;BME280;31721;41.740;-88.000;2023-06-14T06:30:47;97723.94;;;16.73;62.68
45991;BME280;31721;41.740;-88.000;2023-06-14T06:33:15;97719.43;;;16.74;62.76
45991;BME280;31721;41.740;-88.000;2023-06-14T06:35:43;97718.70;;;16.72;62.78
45991;BME280;31721;41.740;-88.000;2023-06-14T06:38:11;97722.99;;;16.78;62.91
45991;BME280;31721;41.740;-88.000;2023-06-14T06:40:39;97727.01;;;16.71;62.91
45991;BME280;31721;41.740;-88.000;2023-06-14T06:43:07;97728.11;;;16.71;63.05
45991;BME280;31721;41.740;-88.000;2023-06-14T06:45:35;97729.21;;;16.73;63.17
45991;BME280;31721;41.740;-88.000;2023-06-14T06:48:02;97730.24;;;16.73;63.00
45991;BME280;31721;41.740;-88.000;2023-06-14T06:50:31;97730.67;;;16.76;63.23
45991;BME280;31721;41.740;-88.000;2023-06-14T06:52:59;97729.85;;;16.77;63.24
45991;BME280;31721;41.740;-88.000;2023-06-14T06:55:26;97729.18;;;16.79;63.28
45991;BME280;31721;41.740;-88.000;2023-06-14T06:57:54;97729.95;;;16.77;63.22
45991;BME280;31721;41.740;-88.000;2023-06-14T07:00:22;97728.65;;;16.82;63.21
45991;BME280;31721;41.740;-88.000;2023-06-14T07:02:50;97725.42;;;16.82;63.08
45991;BME280;31721;41.740;-88.000;2023-06-14T07:05:18;97723.91;;;16.84;63.23
45991;BME280;31721;41.740;-88.000;2023-06-14T07:07:46;97718.85;;;16.81;63.18
45991;BME280;31721;41.740;-88.000;2023-06-14T07:10:14;97719.52;;;16.84;63.18
45991;BME280;31721;41.740;-88.000;2023-06-14T07:12:41;97716.94;;;16.82;63.16
45991;BME280;31721;41.740;-88.000;2023-06-14T07:15:09;97712.65;;;16.84;63.09
45991;BME280;31721;41.740;-88.000;2023-06-14T07:17:37;97713.15;;;16.91;63.26
45991;BME280;31721;41.740;-88.000;2023-06-14T07:20:07;97716.93;;;16.85;63.29
45991;BME280;31721;41.740;-88.000;2023-06-14T07:22:35;97715.09;;;16.75;63.15
45991;BME280;31721;41.740;-88.000;2023-06-14T07:25:03;97716.39;;;16.83;63.24
45991;BME280;31721;41.740;-88.000;2023-06-14T07:27:31;97714.50;;;16.83;63.31
45991;BME280;31721;41.740;-88.000;2023-06-14T07:29:58;97715.52;;;16.84;63.26
45991;BME280;31721;41.740;-88.000;2023-06-14T07:32:26;97720.45;;;16.84;63.31
45991;BME280;31721;41.740;-88.000;2023-06-14T07:34:54;97721.10;;;16.83;63.37
45991;BME280;31721;41.740;-88.000;2023-06-14T07:37:21;97722.35;;;16.84;63.42
45991;BME280;31721;41.740;-88.000;2023-06-14T07:39:49;97727.32;;;16.84;63.38
45991;BME280;31721;41.740;-88.000;2023-06-14T07:42:16;97728.90;;;16.78;63.40
45991;BME280;31721;41.740;-88.000;2023-06-14T07:44:44;97727.95;;;16.87;63.47
45991;BME280;31721;41.740;-88.000;2023-06-14T07:47:12;97729.34;;;16.82;63.34
45991;BME280;31721;41.740;-88.000;2023-06-14T07:49:39;97727.31;;;16.90;63.32
45991;BME280;31721;41.740;-88.000;2023-06-14T07:52:07;97727.28;;;16.88;63.28
45991;BME280;31721;41.740;-88.000;2023-06-14T07:54:35;97722.92;;;16.90;63.27
45991;BME280;31721;41.740;-88.000;2023-06-14T07:57:02;97720.85;;;16.80;63.39
45991;BME280;31721;41.740;-88.000;2023-06-14T07:59:30;97724.08;;;16.79;63.49
45991;BME280;31721;41.740;-88.000;2023-06-14T08:01:58;97716.73;;;16.86;63.57
45991;BME280;31721;41.740;-88.000;2023-06-14T08:04:26;97713.33;;;16.86;63.54
45991;BME280;31721;41.740;-88.000;2023-06-14T08:06:54;97708.99;;;16.85;63.36
45991;BME280;31721;41.740;-88.000;2023-06-14T08:09:21;97716.48;;;16.84;63.58
45991;BME280;31721;41.740;-88.000;2023-06-14T08:11:49;97719.63;;;16.84;63.49
45991;BME280;31721;41.740;-88.000;2023-06-14T08:14:17;97724.25;;;16.83;63.52
45991;BME280;31721;41.740;-88.000;2023-06-14T08:16:44;97725.49;;;16.83;63.44
45991;BME280;31721;41.740;-88.000;2023-06-14T08:19:12;97727.77;;;16.86;63.43
45991;BME280;31721;41.740;-88.000;2023-06-14T08:21:40;97731.74;;;16.88;63.35
45991;BME280;31721;41.740;-88.000;2023-06-14T08:24:08;97733.34;;;16.86;63.12
45991;BME280;31721;41.740;-88.000;2023-06-14T08:26:36;97734.43;;;16.77;63.23
45991;BME280;31721;41.740;-88.000;2023-06-14T08:29:03;97734.84;;;16.80;63.03
45991;BME280;31721;41.740;-88.000;2023-06-14T08:31:31;97734.02;;;16.73;63.20
45991;BME280;31721;41.740;-88.000;2023-06-14T08:33:58;97735.57;;;16.72;63.18
45991;BME280;31721;41.740;-88.000;2023-06-14T08:36:26;97735.22;;;16.70;63.26
45991;BME280;31721;41.740;-88.000;2023-06-14T08:38:53;97739.15;;;16.77;63.32
45991;BME280;31721;41.740;-88.000;2023-06-14T08:41:22;97741.45;;;16.79;63.34
45991;BME280;31721;41.740;-88.000;2023-06-14T08:43:50;97734.01;;;16.72;63.16
45991;BME280;31721;41.740;-88.000;2023-06-14T08:46:18;97732.23;;;16.79;63.22
45991;BME280;31721;41.740;-88.000;2023-06-14T08:48:47;97733.09;;;16.81;63.17
45991;BME280;31721;41.740;-88.000;2023-06-14T08:51:18;97733.30;;;16.73;63.20
45991;BME280;31721;41.740;-88.000;2023-06-14T08:53:49;97738.65;;;16.79;63.07
45991;BME280;31721;41.740;-88.000;2023-06-14T08:56:19;97746.43;;;16.77;63.10
45991;BME280;31721;41.740;-88.000;2023-06-14T08:58:47;97744.72;;;16.80;62.94
45991;BME280;31721;41.740;-88.000;2023-06-14T09:01:16;97750.07;;;16.78;62.80
45991;BME280;31721;41.740;-88.000;2023-06-14T09:03:44;97751.52;;;16.77;63.03
45991;BME280;31721;41.740;-88.000;2023-06-14T09:06:12;97753.62;;;16.85;62.86
45991;BME280;31721;41.740;-88.000;2023-06-14T09:08:42;97750.19;;;16.74;62.90
45991;BME280;31721;41.740;-88.000;2023-06-14T09:11:11;97748.51;;;16.74;62.98
45991;BME280;31721;41.740;-88.000;2023-06-14T09:13:39;97751.22;;;16.72;62.92
45991;BME280;31721;41.740;-88.000;2023-06-14T09:16:08;97747.67;;;16.72;62.91
45991;BME280;31721;41.740;-88.000;2023-06-14T09:18:37;97751.66;;;16.69;62.75
45991;BME280;31721;41.740;-88.000;2023-06-14T09:21:07;97745.29;;;16.66;62.86
45991;BME280;31721;41.740;-88.000;2023-06-14T09:23:37;97739.33;;;16.61;62.82
45991;BME280;31721;41.740;-88.000;2023-06-14T09:26:08;97749.08;;;16.58;62.82
45991;BME280;31721;41.740;-88.000;2023-06-14T09:28:36;97747.80;;;16.51;62.75
45991;BME280;31721;41.740;-88.000;2023-06-14T09:31:08;97745.64;;;16.46;62.83
45991;BME280;31721;41.740;-88.000;2023-06-14T09:33:36;97744.92;;;16.40;62.79
45991;BME280;31721;41.740;-88.000;2023-06-14T09:36:04;97744.64;;;16.38;62.77
45991;BME280;31721;41.740;-88.000;2023-06-14T09:38:37;97738.55;;;16.47;62.68
45991;BME280;31721;41.740;-88.000;2023-06-14T09:41:06;97739.18;;;16.28;62.49
45991;BME280;31721;41.740;-88.000;2023-06-14T09:43:34;97749.43;;;16.23;62.54
45991;BME280;31721;41.740;-88.000;2023-06-14T09:46:01;97755.71;;;16.18;62.55
45991;BME280;31721;41.740;-88.000;2023-06-14T09:48:30;97760.98;;;16.14;62.57
45991;BME280;31721;41.740;-88.000;2023-06-14T09:50:58;97758.45;;;16.23;62.49
45991;BME280;31721;41.740;-88.000;2023-06-14T09:53:29;97758.05;;;16.03;62.67
45991;BME280;31721;41.740;-88.000;2023-06-14T09:55:57;97757.51;;;16.09;62.58
45991;BME280;31721;41.740;-88.000;2023-06-14T09:58:26;97755.56;;;16.13;62.48
45991;BME280;31721;41.740;-88.000;2023-06-14T10:00:55;97757.66;;;16.01;62.50
45991;BME280;31721;41.740;-88.000;2023-06-14T10:03:28;97755.34;;;15.97;62.56
45991;BME280;31721;41.740;-88.000;2023-06-14T10:05:58;97749.90;;;16.01;62.50
45991;BME280;31721;41.740;-88.000;2023-06-14T10:08:31;97753.46;;;15.99;62.47
45991;BME280;31721;41.740;-88.000;2023-06-14T10:11:00;97760.60;;;15.89;62.52
45991;BME280;31721;41.740;-88.000;2023-06-14T10:13:29;97780.32;;;15.82;62.44
45991;BME280;31721;41.740;-88.000;2023-06-14T10:16:04;97792.45;;;15.93;62.48
45991;BME280;31721;41.740;-88.000;2023-06-14T10:18:41;97790.23;;;15.75;62.70
45991;BME280;31721;41.740;-88.000;2023-06-14T10:21:21;97793.59;;;15.82;62.82
45991;BME280;31721;41.740;-88.000;2023-06-14T10:23:50;97795.83;;;15.86;62.72
45991;BME280;31721;41.740;-88.000;2023-06-14T10:26:20;97791.41;;;15.86;62.86
45991;BME280;31721;41.740;-88.000;2023-06-14T10:28:57;97794.48;;;15.76;62.85
45991;BME280;31721;41.740;-88.000;2023-06-14T10:31:41;97802.01;;;15.77;63.00
45991;BME280;31721;41.740;-88.000;2023-06-14T10:34:11;97807.31;;;15.77;63.05
45991;BME280;31721;41.740;-88.000;2023-06-14T10:36:42;97805.13;;;15.77;63.12
45991;BME280;31721;41.740;-88.000;2023-06-14T10:39:17;97810.28;;;15.76;62.96
45991;BME280;31721;41.740;-88.000;2023-06-14T10:41:52;97806.60;;;15.73;62.98
45991;BME280;31721;41.740;-88.000;2023-06-14T10:44:55;97804.36;;;15.80;63.13
45991;BME280;31721;41.740;-88.000;2023-06-14T10:47:25;97805.34;;;15.77;63.01
45991;BME280;31721;41.740;-88.000;2023-06-14T10:49:55;97804.64;;;15.68;63.01
45991;BME280;31721;41.740;-88.000;2023-06-14T10:52:26;97806.15;;;15.75;63.14
45991;BME280;31721;41.740;-88.000;2023-06-14T10:55:00;97803.37;;;15.73;63.11
45991;BME280;31721;41.740;-88.000;2023-06-14T10:57:28;97804.98;;;15.72;63.18
45991;BME280;31721;41.740;-88.000;2023-06-14T10:59:57;97811.15;;;15.72;63.21
45991;BME280;31721;41.740;-88.000;2023-06-14T11:02:45;97814.07;;;15.62;63.31
45991;BME280;31721;41.740;-88.000;2023-06-14T11:05:15;97824.11;;;15.69;63.42
45991;BME280;31721;41.740;-88.000;2023-06-14T11:08:07;97830.71;;;15.73;63.30
45991;BME280;31721;41.740;-88.000;2023-06-14T11:10:42;97843.09;;;15.65;63.68
45991;BME280;31721;41.740;-88.000;2023-06-14T11:13:10;97851.25;;;15.70;63.66
45991;BME280;31721;41.740;-88.000;2023-06-14T11:15:44;97857.84;;;15.54;63.75
45991;BME280;31721;41.740;-88.000;2023-06-14T11:18:13;97861.37;;;15.75;63.89
45991;BME280;31721;41.740;-88.000;2023-06-14T11:20:41;97868.99;;;15.76;63.85
45991;BME280;31721;41.740;-88.000;2023-06-14T11:23:09;97869.10;;;15.80;64.08
45991;BME280;31721;41.740;-88.000;2023-06-14T11:25:37;97877.12;;;15.76;64.11
45991;BME280;31721;41.740;-88.000;2023-06-14T11:28:05;97884.37;;;15.81;64.21
45991;BME280;31721;41.740;-88.000;2023-06-14T11:30:33;97889.05;;;15.92;64.31
45991;BME280;31721;41.740;-88.000;2023-06-14T11:33:00;97885.04;;;15.91;64.24
45991;BME280;31721;41.740;-88.000;2023-06-14T11:35:28;97884.68;;;15.99;64.01
45991;BME280;31721;41.740;-88.000;2023-06-14T11:37:56;97888.76;;;15.97;64.30
45991;BME280;31721;41.740;-88.000;2023-06-14T11:40:25;97886.52;;;15.94;64.33
45991;BME280;31721;41.740;-88.000;2023-06-14T11:42:59;97886.48;;;15.97;64.37
45991;BME280;31721;41.740;-88.000;2023-06-14T11:45:28;97888.70;;;16.03;64.24
45991;BME280;31721;41.740;-88.000;2023-06-14T11:47:57;97887.78;;;16.08;64.26
45991;BME280;31721;41.740;-88.000;2023-06-14T11:50:26;97891.12;;;16.22;64.33
45991;BME280;31721;41.740;-88.000;2023-06-14T11:52:54;97895.39;;;16.21;64.06
45991;BME280;31721;41.740;-88.000;2023-06-14T11:55:22;97895.67;;;16.35;63.97
45991;BME280;31721;41.740;-88.000;2023-06-14T11:57:51;97898.42;;;16.42;63.64
45991;BME280;31721;41.740;-88.000;2023-06-14T12:00:25;97904.10;;;16.25;63.40
45991;BME280;31721;41.740;-88.000;2023-06-14T12:02:54;97907.36;;;16.34;63.32
45991;BME280;31721;41.740;-88.000;2023-06-14T12:05:22;97907.19;;;16.43;63.34
45991;BME280;31721;41.740;-88.000;2023-06-14T12:07:50;97903.60;;;16.37;63.40
45991;BME280;31721;41.740;-88.000;2023-06-14T12:10:25;97903.36;;;16.32;63.66
45991;BME280;31721;41.740;-88.000;2023-06-14T12:12:58;97905.69;;;16.39;63.45
45991;BME280;31721;41.740;-88.000;2023-06-14T12:15:28;97903.86;;;16.44;63.41
45991;BME280;31721;41.740;-88.000;2023-06-14T12:17:56;97902.02;;;16.48;63.57
45991;BME280;31721;41.740;-88.000;2023-06-14T12:20:29;97910.56;;;16.55;63.50
45991;BME280;31721;41.740;-88.000;2023-06-14T12:22:59;97917.54;;;16.50;63.36
45991;BME280;31721;41.740;-88.000;2023-06-14T12:25:28;97925.86;;;16.62;63.19
45991;BME280;31721;41.740;-88.000;2023-06-14T12:27:57;97928.42;;;16.65;63.13
45991;BME280;31721;41.740;-88.000;2023-06-14T12:30:25;97936.84;;;16.57;63.03
45991;BME280;31721;41.740;-88.000;2023-06-14T12:32:53;97940.20;;;16.56;62.72
45991;BME280;31721;41.740;-88.000;2023-06-14T12:35:21;97940.50;;;16.63;62.54
45991;BME280;31721;41.740;-88.000;2023-06-14T12:37:49;97939.06;;;16.65;62.72
45991;BME280;31721;41.740;-88.000;2023-06-14T12:40:17;97935.66;;;16.62;62.77
45991;BME280;31721;41.740;-88.000;2023-06-14T12:42:45;97937.97;;;16.73;62.58
45991;BME280;31721;41.740;-88.000;2023-06-14T12:45:13;97945.91;;;16.78;62.49
45991;BME280;31721;41.740;-88.000;2023-06-14T12:47:40;97948.72;;;16.80;62.40
45991;BME280;31721;41.740;-88.000;2023-06-14T12:50:09;97949.08;;;16.76;62.73